sensor_id;sensor_type;location;lat;lon;timestamp;P1;durP1;ratioP1;P2;durP2;ratioP2
12910;SDS011;6523;49.758;6.120;2022-09-17T00:01:55;2.17;;;1.97;;
12910;SDS011;6523;49.758;6.120;2022-09-17T00:04:21;3.30;;;1.90;;
12910;SDS011;6523;49.758;6.120;2022-09-17T00:06:47;3.93;;;2.43;;
12910;SDS011;6523;49.758;6.120;2022-09-17T00:09:12;4.40;;;2.80;;
12910;SDS011;6523;49.758;6.120;2022-09-17T00:11:39;2.37;;;2.17;;
12910;SDS011;6523;49.758;6.120;2022-09-17T00:14:06;2.20;;;2.07;;
12910;SDS011;6523;49.758;6.120;2022-09-17T00:16:38;3.50;;;1.97;;
12910;SDS011;6523;49.758;6.120;2022-09-17T00:19:05;2.50;;;2.30;;
12910;SDS011;6523;49.758;6.120;2022-09-17T00:21:34;2.93;;;2.57;;
12910;SDS011;6523;49.758;6.120;2022-09-17T00:24:00;4.23;;;2.50;;
12910;SDS011;6523;49.758;6.120;2022-09-17T00:26:28;3.07;;;2.77;;
12910;SDS011;6523;49.758;6.120;2022-09-17T00:28:55;2.97;;;2.30;;
12910;SDS011;6523;49.758;6.120;2022-09-17T00:31:22;4.93;;;2.60;;
12910;SDS011;6523;49.758;6.120;2022-09-17T00:33:48;4.63;;;2.33;;
12910;SDS011;6523;49.758;6.120;2022-09-17T00:36:15;3.50;;;2.10;;
12910;SDS011;6523;49.758;6.120;2022-09-17T00:38:41;2.83;;;2.33;;
12910;SDS011;6523;49.758;6.120;2022-09-17T00:41:07;3.27;;;2.80;;
12910;SDS011;6523;49.758;6.120;2022-09-17T00:43:34;3.63;;;2.27;;
12910;SDS011;6523;49.758;6.120;2022-09-17T00:46:02;2.83;;;2.50;;
12910;SDS011;6523;49.758;6.120;2022-09-17T00:48:33;2.40;;;2.20;;
12910;SDS011;6523;49.758;6.120;2022-09-17T00:50:58;2.30;;;2.00;;
12910;SDS011;6523;49.758;6.120;2022-09-17T00:53:26;2.90;;;2.30;;
12910;SDS011;6523;49.758;6.120;2022-09-17T00:56:00;3.90;;;2.37;;
12910;SDS011;6523;49.758;6.120;2022-09-17T00:58:41;4.73;;;2.10;;
12910;SDS011;6523;49.758;6.120;2022-09-17T01:01:07;3.13;;;2.20;;
12910;SDS011;6523;49.758;6.120;2022-09-17T01:03:33;2.57;;;2.30;;
12910;SDS011;6523;49.758;6.120;2022-09-17T01:06:08;3.13;;;2.17;;
12910;SDS011;6523;49.758;6.120;2022-09-17T01:20:06;3.67;;;2.83;;
12910;SDS011;6523;49.758;6.120;2022-09-17T01:22:59;3.27;;;2.90;;
12910;SDS011;6523;49.758;6.120;2022-09-17T01:25:37;2.87;;;2.53;;
12910;SDS011;6523;49.758;6.120;2022-09-17T01:28:29;3.97;;;2.80;;
12910;SDS011;6523;49.758;6.120;2022-09-17T01:31:15;3.80;;;2.73;;
12910;SDS011;6523;49.758;6.120;2022-09-17T01:33:49;3.07;;;2.77;;
12910;SDS011;6523;49.758;6.120;2022-09-17T01:36:39;4.33;;;2.40;;
12910;SDS011;6523;49.758;6.120;2022-09-17T01:44:51;3.57;;;2.23;;
12910;SDS011;6523;49.758;6.120;2022-09-17T01:47:53;2.37;;;2.17;;
12910;SDS011;6523;49.758;6.120;2022-09-17T01:50:35;2.63;;;1.83;;
12910;SDS011;6523;49.758;6.120;2022-09-17T01:53:05;3.17;;;1.93;;
12910;SDS011;6523;49.758;6.120;2022-09-17T01:55:34;4.40;;;2.10;;
12910;SDS011;6523;49.758;6.120;2022-09-17T01:58:16;3.10;;;1.90;;
12910;SDS011;6523;49.758;6.120;2022-09-17T02:00:55;2.40;;;1.70;;
12910;SDS011;6523;49.758;6.120;2022-09-17T02:03:34;3.47;;;2.17;;
12910;SDS011;6523;49.758;6.120;2022-09-17T02:08:42;2.33;;;2.13;;
12910;SDS011;6523;49.758;6.120;2022-09-17T02:11:12;4.63;;;2.13;;
12910;SDS011;6523;49.758;6.120;2022-09-17T02:13:45;3.37;;;1.90;;
12910;SDS011;6523;49.758;6.120;2022-09-17T02:18:48;2.57;;;2.27;;
12910;SDS011;6523;49.758;6.120;2022-09-17T02:23:58;3.83;;;2.20;;
12910;SDS011;6523;49.758;6.120;2022-09-17T02:26:36;5.03;;;2.20;;
12910;SDS011;6523;49.758;6.120;2022-09-17T02:29:06;3.83;;;1.90;;
12910;SDS011;6523;49.758;6.120;2022-09-17T02:31:36;2.07;;;1.97;;
12910;SDS011;6523;49.758;6.120;2022-09-17T02:34:01;4.90;;;2.50;;
12910;SDS011;6523;49.758;6.120;2022-09-17T02:36:29;2.73;;;2.53;;
12910;SDS011;6523;49.758;6.120;2022-09-17T02:38:59;3.17;;;2.23;;
12910;SDS011;6523;49.758;6.120;2022-09-17T02:41:37;3.53;;;2.43;;
12910;SDS011;6523;49.758;6.120;2022-09-17T02:44:31;5.10;;;2.13;;
12910;SDS011;6523;49.758;6.120;2022-09-17T02:47:13;3.73;;;2.40;;
12910;SDS011;6523;49.758;6.120;2022-09-17T02:58:13;5.63;;;1.97;;
12910;SDS011;6523;49.758;6.120;2022-09-17T03:00:50;4.30;;;2.27;;
12910;SDS011;6523;49.758;6.120;2022-09-17T03:05:56;2.60;;;2.03;;
12910;SDS011;6523;49.758;6.120;2022-09-17T03:08:29;2.20;;;2.00;;
12910;SDS011;6523;49.758;6.120;2022-09-17T03:10:58;4.27;;;2.17;;
12910;SDS011;6523;49.758;6.120;2022-09-17T03:13:24;2.43;;;2.23;;
12910;SDS011;6523;49.758;6.120;2022-09-17T03:15:50;4.17;;;2.47;;
12910;SDS011;6523;49.758;6.120;2022-09-17T03:18:15;5.70;;;2.80;;
12910;SDS011;6523;49.758;6.120;2022-09-17T03:20:41;3.07;;;2.43;;
12910;SDS011;6523;49.758;6.120;2022-09-17T03:23:07;5.83;;;2.50;;
12910;SDS011;6523;49.758;6.120;2022-09-17T03:25:32;3.77;;;2.50;;
12910;SDS011;6523;49.758;6.120;2022-09-17T03:27:58;5.43;;;2.77;;
12910;SDS011;6523;49.758;6.120;2022-09-17T03:30:24;4.17;;;2.07;;
12910;SDS011;6523;49.758;6.120;2022-09-17T03:32:49;3.90;;;2.43;;
12910;SDS011;6523;49.758;6.120;2022-09-17T03:35:15;5.03;;;2.90;;
12910;SDS011;6523;49.758;6.120;2022-09-17T03:37:40;4.53;;;2.50;;
12910;SDS011;6523;49.758;6.120;2022-09-17T03:40:07;3.67;;;2.40;;
12910;SDS011;6523;49.758;6.120;2022-09-17T03:42:32;4.70;;;2.87;;
12910;SDS011;6523;49.758;6.120;2022-09-17T03:44:58;5.63;;;2.87;;
12910;SDS011;6523;49.758;6.120;2022-09-17T03:47:24;5.63;;;2.97;;
12910;SDS011;6523;49.758;6.120;2022-09-17T03:49:49;6.17;;;3.53;;
12910;SDS011;6523;49.758;6.120;2022-09-17T03:52:16;5.87;;;2.93;;
12910;SDS011;6523;49.758;6.120;2022-09-17T03:54:41;7.07;;;3.23;;
12910;SDS011;6523;49.758;6.120;2022-09-17T03:57:07;6.57;;;3.33;;
12910;SDS011;6523;49.758;6.120;2022-09-17T03:59:33;4.60;;;3.70;;
12910;SDS011;6523;49.758;6.120;2022-09-17T04:01:59;5.67;;;3.60;;
12910;SDS011;6523;49.758;6.120;2022-09-17T04:04:24;9.40;;;4.50;;
12910;SDS011;6523;49.758;6.120;2022-09-17T04:06:50;5.10;;;3.27;;
12910;SDS011;6523;49.758;6.120;2022-09-17T04:09:15;8.07;;;4.40;;
12910;SDS011;6523;49.758;6.120;2022-09-17T04:11:41;7.23;;;4.30;;
12910;SDS011;6523;49.758;6.120;2022-09-17T04:14:06;6.40;;;4.77;;
12910;SDS011;6523;49.758;6.120;2022-09-17T04:16:32;6.80;;;4.40;;
12910;SDS011;6523;49.758;6.120;2022-09-17T04:18:57;7.03;;;4.80;;
12910;SDS011;6523;49.758;6.120;2022-09-17T04:21:23;9.77;;;4.50;;
12910;SDS011;6523;49.758;6.120;2022-09-17T04:23:49;9.80;;;4.67;;
12910;SDS011;6523;49.758;6.120;2022-09-17T04:26:14;5.93;;;4.07;;
12910;SDS011;6523;49.758;6.120;2022-09-17T04:28:40;4.63;;;3.67;;
12910;SDS011;6523;49.758;6.120;2022-09-17T04:31:06;7.03;;;3.60;;
12910;SDS011;6523;49.758;6.120;2022-09-17T04:33:31;5.17;;;3.23;;
12910;SDS011;6523;49.758;6.120;2022-09-17T04:35:57;6.30;;;3.07;;
12910;SDS011;6523;49.758;6.120;2022-09-17T04:38:22;10.13;;;3.30;;
12910;SDS011;6523;49.758;6.120;2022-09-17T04:40:48;7.47;;;3.03;;
12910;SDS011;6523;49.758;6.120;2022-09-17T04:43:15;6.27;;;3.00;;
12910;SDS011;6523;49.758;6.120;2022-09-17T04:45:43;5.83;;;3.17;;
12910;SDS011;6523;49.758;6.120;2022-09-17T04:48:10;9.83;;;3.63;;
12910;SDS011;6523;49.758;6.120;2022-09-17T04:50:35;6.90;;;2.70;;
12910;SDS011;6523;49.758;6.120;2022-09-17T04:53:01;5.63;;;3.33;;
12910;SDS011;6523;49.758;6.120;2022-09-17T04:55:27;5.73;;;2.73;;
12910;SDS011;6523;49.758;6.120;2022-09-17T04:57:53;3.83;;;2.67;;
12910;SDS011;6523;49.758;6.120;2022-09-17T05:00:19;6.63;;;2.73;;
12910;SDS011;6523;49.758;6.120;2022-09-17T05:02:47;5.10;;;2.50;;
12910;SDS011;6523;49.758;6.120;2022-09-17T05:05:14;2.37;;;2.10;;
12910;SDS011;6523;49.758;6.120;2022-09-17T05:07:41;6.93;;;2.43;;
12910;SDS011;6523;49.758;6.120;2022-09-17T05:10:07;3.43;;;2.20;;
12910;SDS011;6523;49.758;6.120;2022-09-17T05:12:34;5.10;;;2.23;;
12910;SDS011;6523;49.758;6.120;2022-09-17T05:14:59;8.50;;;2.50;;
12910;SDS011;6523;49.758;6.120;2022-09-17T05:17:25;5.77;;;2.23;;
12910;SDS011;6523;49.758;6.120;2022-09-17T05:19:51;3.73;;;2.47;;
12910;SDS011;6523;49.758;6.120;2022-09-17T05:22:17;4.60;;;2.90;;
12910;SDS011;6523;49.758;6.120;2022-09-17T05:24:43;5.33;;;2.10;;
12910;SDS011;6523;49.758;6.120;2022-09-17T05:27:09;4.20;;;2.80;;
12910;SDS011;6523;49.758;6.120;2022-09-17T05:29:35;4.80;;;2.20;;
12910;SDS011;6523;49.758;6.120;2022-09-17T05:32:01;4.87;;;2.40;;
12910;SDS011;6523;49.758;6.120;2022-09-17T05:34:27;2.37;;;2.13;;
12910;SDS011;6523;49.758;6.120;2022-09-17T05:36:53;2.47;;;2.10;;
12910;SDS011;6523;49.758;6.120;2022-09-17T05:39:18;3.50;;;2.30;;
12910;SDS011;6523;49.758;6.120;2022-09-17T05:41:46;3.23;;;2.20;;
12910;SDS011;6523;49.758;6.120;2022-09-17T05:44:12;3.67;;;2.50;;
12910;SDS011;6523;49.758;6.120;2022-09-17T05:46:38;3.70;;;2.13;;
12910;SDS011;6523;49.758;6.120;2022-09-17T05:49:03;3.43;;;2.30;;
12910;SDS011;6523;49.758;6.120;2022-09-17T05:51:29;3.33;;;2.53;;
12910;SDS011;6523;49.758;6.120;2022-09-17T05:53:55;7.07;;;2.43;;
12910;SDS011;6523;49.758;6.120;2022-09-17T05:56:21;5.43;;;2.20;;
12910;SDS011;6523;49.758;6.120;2022-09-17T05:58:47;3.93;;;2.20;;
12910;SDS011;6523;49.758;6.120;2022-09-17T06:01:13;5.00;;;2.40;;
12910;SDS011;6523;49.758;6.120;2022-09-17T06:03:40;3.13;;;2.23;;
12910;SDS011;6523;49.758;6.120;2022-09-17T06:06:06;3.60;;;2.40;;
12910;SDS011;6523;49.758;6.120;2022-09-17T06:08:34;5.13;;;2.60;;
12910;SDS011;6523;49.758;6.120;2022-09-17T06:11:04;3.37;;;2.23;;
12910;SDS011;6523;49.758;6.120;2022-09-17T06:13:31;3.50;;;2.10;;
12910;SDS011;6523;49.758;6.120;2022-09-17T06:15:57;4.97;;;2.77;;
12910;SDS011;6523;49.758;6.120;2022-09-17T06:18:22;3.40;;;2.40;;
12910;SDS011;6523;49.758;6.120;2022-09-17T06:20:51;2.57;;;2.00;;
12910;SDS011;6523;49.758;6.120;2022-09-17T06:23:21;2.63;;;2.43;;
12910;SDS011;6523;49.758;6.120;2022-09-17T06:25:52;4.93;;;2.83;;
12910;SDS011;6523;49.758;6.120;2022-09-17T06:28:21;3.27;;;2.23;;
12910;SDS011;6523;49.758;6.120;2022-09-17T06:30:47;2.87;;;2.27;;
12910;SDS011;6523;49.758;6.120;2022-09-17T06:33:13;2.30;;;1.77;;
12910;SDS011;6523;49.758;6.120;2022-09-17T06:35:39;3.00;;;2.03;;
12910;SDS011;6523;49.758;6.120;2022-09-17T06:38:06;2.80;;;1.90;;
12910;SDS011;6523;49.758;6.120;2022-09-17T06:40:31;6.23;;;2.10;;
12910;SDS011;6523;49.758;6.120;2022-09-17T06:42:57;7.63;;;2.30;;
12910;SDS011;6523;49.758;6.120;2022-09-17T06:45:24;4.23;;;1.87;;
12910;SDS011;6523;49.758;6.120;2022-09-17T06:47:51;1.80;;;1.70;;
12910;SDS011;6523;49.758;6.120;2022-09-17T06:50:17;5.40;;;2.07;;
12910;SDS011;6523;49.758;6.120;2022-09-17T06:52:49;2.83;;;2.13;;
12910;SDS011;6523;49.758;6.120;2022-09-17T06:55:16;3.37;;;1.90;;
12910;SDS011;6523;49.758;6.120;2022-09-17T06:57:42;4.20;;;2.13;;
12910;SDS011;6523;49.758;6.120;2022-09-17T07:00:08;1.87;;;1.77;;
12910;SDS011;6523;49.758;6.120;2022-09-17T07:02:34;3.67;;;2.13;;
12910;SDS011;6523;49.758;6.120;2022-09-17T07:05:00;5.10;;;2.40;;
12910;SDS011;6523;49.758;6.120;2022-09-17T07:07:26;7.40;;;2.53;;
12910;SDS011;6523;49.758;6.120;2022-09-17T07:09:52;5.43;;;2.20;;
12910;SDS011;6523;49.758;6.120;2022-09-17T07:12:19;4.27;;;2.23;;
12910;SDS011;6523;49.758;6.120;2022-09-17T07:14:45;4.07;;;2.37;;
12910;SDS011;6523;49.758;6.120;2022-09-17T07:17:12;2.90;;;1.97;;
12910;SDS011;6523;49.758;6.120;2022-09-17T07:19:40;4.73;;;2.20;;
12910;SDS011;6523;49.758;6.120;2022-09-17T07:22:06;3.63;;;2.00;;
12910;SDS011;6523;49.758;6.120;2022-09-17T07:24:32;2.33;;;2.00;;
12910;SDS011;6523;49.758;6.120;2022-09-17T07:26:58;4.40;;;2.07;;
12910;SDS011;6523;49.758;6.120;2022-09-17T07:29:23;5.27;;;2.40;;
12910;SDS011;6523;49.758;6.120;2022-09-17T07:31:52;4.90;;;2.77;;
12910;SDS011;6523;49.758;6.120;2022-09-17T07:34:18;5.33;;;2.37;;
12910;SDS011;6523;49.758;6.120;2022-09-17T07:36:44;4.97;;;2.40;;
12910;SDS011;6523;49.758;6.120;2022-09-17T07:39:10;4.57;;;2.30;;
12910;SDS011;6523;49.758;6.120;2022-09-17T07:41:37;5.70;;;2.30;;
12910;SDS011;6523;49.758;6.120;2022-09-17T07:44:04;6.17;;;2.20;;
12910;SDS011;6523;49.758;6.120;2022-09-17T07:46:31;4.33;;;2.40;;
12910;SDS011;6523;49.758;6.120;2022-09-17T07:48:57;6.43;;;2.80;;
12910;SDS011;6523;49.758;6.120;2022-09-17T07:51:23;7.43;;;2.47;;
12910;SDS011;6523;49.758;6.120;2022-09-17T07:53:53;3.87;;;2.00;;
12910;SDS011;6523;49.758;6.120;2022-09-17T07:56:20;3.47;;;1.90;;
12910;SDS011;6523;49.758;6.120;2022-09-17T07:58:47;5.63;;;2.13;;
12910;SDS011;6523;49.758;6.120;2022-09-17T08:01:13;5.77;;;2.60;;
12910;SDS011;6523;49.758;6.120;2022-09-17T08:03:46;6.67;;;2.43;;
12910;SDS011;6523;49.758;6.120;2022-09-17T08:06:13;4.17;;;2.40;;
12910;SDS011;6523;49.758;6.120;2022-09-17T08:08:41;8.70;;;2.83;;
12910;SDS011;6523;49.758;6.120;2022-09-17T08:11:08;6.93;;;2.60;;
12910;SDS011;6523;49.758;6.120;2022-09-17T08:13:35;6.23;;;2.40;;
12910;SDS011;6523;49.758;6.120;2022-09-17T08:16:08;6.73;;;2.47;;
12910;SDS011;6523;49.758;6.120;2022-09-17T08:18:39;6.60;;;2.27;;
12910;SDS011;6523;49.758;6.120;2022-09-17T08:21:06;7.13;;;2.17;;
12910;SDS011;6523;49.758;6.120;2022-09-17T08:23:34;7.50;;;2.40;;
12910;SDS011;6523;49.758;6.120;2022-09-17T08:26:01;5.67;;;2.27;;
12910;SDS011;6523;49.758;6.120;2022-09-17T08:28:28;7.57;;;2.67;;
12910;SDS011;6523;49.758;6.120;2022-09-17T08:31:02;5.67;;;2.47;;
12910;SDS011;6523;49.758;6.120;2022-09-17T08:33:33;8.23;;;2.53;;
12910;SDS011;6523;49.758;6.120;2022-09-17T08:36:00;5.83;;;2.83;;
12910;SDS011;6523;49.758;6.120;2022-09-17T08:38:28;5.30;;;2.10;;
12910;SDS011;6523;49.758;6.120;2022-09-17T08:40:59;8.73;;;2.63;;
12910;SDS011;6523;49.758;6.120;2022-09-17T08:43:30;6.03;;;2.43;;
12910;SDS011;6523;49.758;6.120;2022-09-17T08:45:59;7.57;;;2.53;;
12910;SDS011;6523;49.758;6.120;2022-09-17T08:48:27;10.63;;;2.70;;
12910;SDS011;6523;49.758;6.120;2022-09-17T08:50:59;7.23;;;2.33;;
12910;SDS011;6523;49.758;6.120;2022-09-17T08:53:37;8.03;;;3.07;;
12910;SDS011;6523;49.758;6.120;2022-09-17T08:56:14;8.00;;;2.50;;
12910;SDS011;6523;49.758;6.120;2022-09-17T08:58:53;8.07;;;2.50;;
12910;SDS011;6523;49.758;6.120;2022-09-17T09:01:34;7.07;;;2.77;;
12910;SDS011;6523;49.758;6.120;2022-09-17T09:06:53;4.57;;;2.00;;
12910;SDS011;6523;49.758;6.120;2022-09-17T09:09:24;8.00;;;2.53;;
12910;SDS011;6523;49.758;6.120;2022-09-17T09:12:04;6.83;;;2.50;;
12910;SDS011;6523;49.758;6.120;2022-09-17T09:14:50;5.20;;;2.73;;
12910;SDS011;6523;49.758;6.120;2022-09-17T09:17:21;5.30;;;2.13;;
12910;SDS011;6523;49.758;6.120;2022-09-17T09:19:53;5.63;;;2.20;;
12910;SDS011;6523;49.758;6.120;2022-09-17T09:22:31;5.63;;;1.97;;
12910;SDS011;6523;49.758;6.120;2022-09-17T09:25:19;5.03;;;2.10;;
12910;SDS011;6523;49.758;6.120;2022-09-17T09:30:54;4.87;;;2.07;;
12910;SDS011;6523;49.758;6.120;2022-09-17T09:33:36;3.37;;;1.67;;
12910;SDS011;6523;49.758;6.120;2022-09-17T09:36:05;4.57;;;2.20;;
12910;SDS011;6523;49.758;6.120;2022-09-17T09:38:37;5.73;;;2.57;;
12910;SDS011;6523;49.758;6.120;2022-09-17T09:41:13;4.37;;;2.03;;
12910;SDS011;6523;49.758;6.120;2022-09-17T09:43:44;2.80;;;1.77;;
12910;SDS011;6523;49.758;6.120;2022-09-17T09:57:08;3.73;;;1.83;;
12910;SDS011;6523;49.758;6.120;2022-09-17T09:59:41;6.97;;;2.30;;
12910;SDS011;6523;49.758;6.120;2022-09-17T10:02:07;5.60;;;2.07;;
12910;SDS011;6523;49.758;6.120;2022-09-17T10:04:32;4.47;;;2.40;;
12910;SDS011;6523;49.758;6.120;2022-09-17T10:07:00;4.57;;;2.20;;
12910;SDS011;6523;49.758;6.120;2022-09-17T10:09:27;5.60;;;1.90;;
12910;SDS011;6523;49.758;6.120;2022-09-17T10:12:00;4.80;;;1.90;;
12910;SDS011;6523;49.758;6.120;2022-09-17T10:14:46;4.93;;;2.07;;
12910;SDS011;6523;49.758;6.120;2022-09-17T10:19:42;2.50;;;2.00;;
12910;SDS011;6523;49.758;6.120;2022-09-17T10:22:18;5.27;;;2.33;;
12910;SDS011;6523;49.758;6.120;2022-09-17T10:24:47;4.40;;;1.83;;
12910;SDS011;6523;49.758;6.120;2022-09-17T10:27:16;4.17;;;2.00;;
12910;SDS011;6523;49.758;6.120;2022-09-17T10:29:43;3.57;;;1.90;;
12910;SDS011;6523;49.758;6.120;2022-09-17T10:32:15;3.80;;;1.67;;
12910;SDS011;6523;49.758;6.120;2022-09-17T10:37:45;3.57;;;1.23;;
12910;SDS011;6523;49.758;6.120;2022-09-17T10:45:32;3.20;;;1.10;;
12910;SDS011;6523;49.758;6.120;2022-09-17T10:47:59;1.87;;;1.17;;
12910;SDS011;6523;49.758;6.120;2022-09-17T10:50:28;3.60;;;1.03;;
12910;SDS011;6523;49.758;6.120;2022-09-17T10:52:56;2.57;;;0.90;;
12910;SDS011;6523;49.758;6.120;2022-09-17T10:55:30;2.00;;;0.80;;
12910;SDS011;6523;49.758;6.120;2022-09-17T11:00:29;4.17;;;1.37;;
12910;SDS011;6523;49.758;6.120;2022-09-17T11:09:07;4.43;;;1.33;;
12910;SDS011;6523;49.758;6.120;2022-09-17T11:18:13;5.07;;;0.90;;
12910;SDS011;6523;49.758;6.120;2022-09-17T11:34:52;2.03;;;0.80;;
12910;SDS011;6523;49.758;6.120;2022-09-17T11:37:36;1.07;;;0.63;;
12910;SDS011;6523;49.758;6.120;2022-09-17T11:42:43;2.00;;;0.47;;
12910;SDS011;6523;49.758;6.120;2022-09-17T11:47:57;1.83;;;0.63;;
12910;SDS011;6523;49.758;6.120;2022-09-17T11:50:43;3.80;;;1.00;;
12910;SDS011;6523;49.758;6.120;2022-09-17T11:58:49;1.67;;;0.67;;
12910;SDS011;6523;49.758;6.120;2022-09-17T12:01:34;1.50;;;0.73;;
12910;SDS011;6523;49.758;6.120;2022-09-17T12:04:26;2.03;;;0.77;;
12910;SDS011;6523;49.758;6.120;2022-09-17T12:12:33;2.07;;;0.97;;
12910;SDS011;6523;49.758;6.120;2022-09-17T12:15:17;1.77;;;0.87;;
12910;SDS011;6523;49.758;6.120;2022-09-17T12:17:48;1.57;;;0.67;;
12910;SDS011;6523;49.758;6.120;2022-09-17T12:20:28;1.17;;;0.70;;
12910;SDS011;6523;49.758;6.120;2022-09-17T12:22:57;1.83;;;0.60;;
12910;SDS011;6523;49.758;6.120;2022-09-17T12:25:28;1.87;;;0.70;;
12910;SDS011;6523;49.758;6.120;2022-09-17T12:28:06;2.70;;;0.70;;
12910;SDS011;6523;49.758;6.120;2022-09-17T12:30:37;2.60;;;0.80;;
12910;SDS011;6523;49.758;6.120;2022-09-17T12:33:25;2.67;;;0.90;;
12910;SDS011;6523;49.758;6.120;2022-09-17T12:36:15;1.63;;;0.90;;
12910;SDS011;6523;49.758;6.120;2022-09-17T12:39:02;4.33;;;0.87;;
12910;SDS011;6523;49.758;6.120;2022-09-17T12:53:40;4.33;;;1.20;;
12910;SDS011;6523;49.758;6.120;2022-09-17T12:56:21;3.47;;;1.50;;
12910;SDS011;6523;49.758;6.120;2022-09-17T12:59:04;4.10;;;1.17;;
12910;SDS011;6523;49.758;6.120;2022-09-17T13:18:53;0.87;;;0.33;;
12910;SDS011;6523;49.758;6.120;2022-09-17T13:24:02;1.63;;;1.00;;
12910;SDS011;6523;49.758;6.120;2022-09-17T13:26:39;2.67;;;0.73;;
12910;SDS011;6523;49.758;6.120;2022-09-17T13:29:05;1.73;;;1.07;;
12910;SDS011;6523;49.758;6.120;2022-09-17T13:34:00;1.37;;;0.53;;
12910;SDS011;6523;49.758;6.120;2022-09-17T13:36:34;1.70;;;0.70;;
12910;SDS011;6523;49.758;6.120;2022-09-17T13:42:04;1.97;;;1.00;;
12910;SDS011;6523;49.758;6.120;2022-09-17T13:44:35;3.07;;;1.73;;
12910;SDS011;6523;49.758;6.120;2022-09-17T13:47:07;2.07;;;0.70;;
12910;SDS011;6523;49.758;6.120;2022-09-17T13:49:42;0.90;;;0.83;;
12910;SDS011;6523;49.758;6.120;2022-09-17T13:52:10;2.60;;;1.77;;
12910;SDS011;6523;49.758;6.120;2022-09-17T13:54:36;1.13;;;0.50;;
12910;SDS011;6523;49.758;6.120;2022-09-17T13:57:09;1.37;;;0.57;;
12910;SDS011;6523;49.758;6.120;2022-09-17T13:59:38;0.63;;;0.20;;
12910;SDS011;6523;49.758;6.120;2022-09-17T14:18:31;2.53;;;1.10;;
12910;SDS011;6523;49.758;6.120;2022-09-17T14:20:52;0.50;;;0.50;;
12910;SDS011;6523;49.758;6.120;2022-09-17T14:23:43;0.83;;;0.50;;
12910;SDS011;6523;49.758;6.120;2022-09-17T14:26:13;0.83;;;0.40;;
12910;SDS011;6523;49.758;6.120;2022-09-17T14:28:59;0.70;;;0.53;;
12910;SDS011;6523;49.758;6.120;2022-09-17T14:31:34;0.97;;;0.40;;
12910;SDS011;6523;49.758;6.120;2022-09-17T14:34:04;0.73;;;0.47;;
12910;SDS011;6523;49.758;6.120;2022-09-17T14:36:34;1.03;;;0.60;;
12910;SDS011;6523;49.758;6.120;2022-09-17T14:39:03;0.53;;;0.47;;
12910;SDS011;6523;49.758;6.120;2022-09-17T14:41:38;2.23;;;1.17;;
12910;SDS011;6523;49.758;6.120;2022-09-17T14:44:14;3.37;;;1.17;;
12910;SDS011;6523;49.758;6.120;2022-09-17T14:46:46;1.57;;;0.60;;
12910;SDS011;6523;49.758;6.120;2022-09-17T14:51:46;2.27;;;1.10;;
12910;SDS011;6523;49.758;6.120;2022-09-17T14:54:19;1.83;;;0.80;;
12910;SDS011;6523;49.758;6.120;2022-09-17T14:56:51;1.33;;;0.70;;
12910;SDS011;6523;49.758;6.120;2022-09-17T15:01:51;1.93;;;1.47;;
12910;SDS011;6523;49.758;6.120;2022-09-17T15:04:19;1.57;;;0.70;;
12910;SDS011;6523;49.758;6.120;2022-09-17T15:06:46;1.00;;;0.40;;
12910;SDS011;6523;49.758;6.120;2022-09-17T15:09:15;1.37;;;0.40;;
12910;SDS011;6523;49.758;6.120;2022-09-17T15:11:44;1.93;;;1.10;;
12910;SDS011;6523;49.758;6.120;2022-09-17T15:14:19;2.70;;;1.10;;
12910;SDS011;6523;49.758;6.120;2022-09-17T15:16:47;1.83;;;1.23;;
12910;SDS011;6523;49.758;6.120;2022-09-17T15:19:18;0.70;;;0.70;;
12910;SDS011;6523;49.758;6.120;2022-09-17T15:21:47;2.27;;;0.87;;
12910;SDS011;6523;49.758;6.120;2022-09-17T15:27:07;4.33;;;1.03;;
12910;SDS011;6523;49.758;6.120;2022-09-17T15:29:45;1.00;;;0.70;;
12910;SDS011;6523;49.758;6.120;2022-09-17T15:32:14;1.50;;;0.70;;
12910;SDS011;6523;49.758;6.120;2022-09-17T15:34:40;1.63;;;0.77;;
12910;SDS011;6523;49.758;6.120;2022-09-17T15:37:15;2.67;;;0.90;;
12910;SDS011;6523;49.758;6.120;2022-09-17T15:39:50;1.00;;;0.87;;
12910;SDS011;6523;49.758;6.120;2022-09-17T15:44:47;1.07;;;0.73;;
12910;SDS011;6523;49.758;6.120;2022-09-17T15:52:42;3.37;;;1.10;;
12910;SDS011;6523;49.758;6.120;2022-09-17T15:55:27;4.90;;;1.50;;
12910;SDS011;6523;49.758;6.120;2022-09-17T15:57:55;5.77;;;0.97;;
12910;SDS011;6523;49.758;6.120;2022-09-17T16:00:22;1.37;;;1.27;;
12910;SDS011;6523;49.758;6.120;2022-09-17T16:02:47;2.20;;;0.70;;
12910;SDS011;6523;49.758;6.120;2022-09-17T16:07:42;2.23;;;1.00;;
12910;SDS011;6523;49.758;6.120;2022-09-17T16:10:10;2.63;;;1.10;;
12910;SDS011;6523;49.758;6.120;2022-09-17T16:12:37;3.20;;;1.10;;
12910;SDS011;6523;49.758;6.120;2022-09-17T16:15:03;2.03;;;0.83;;
12910;SDS011;6523;49.758;6.120;2022-09-17T16:22:50;2.17;;;0.50;;
12910;SDS011;6523;49.758;6.120;2022-09-17T16:25:17;2.43;;;0.80;;
12910;SDS011;6523;49.758;6.120;2022-09-17T16:27:50;1.63;;;0.70;;
12910;SDS011;6523;49.758;6.120;2022-09-17T16:30:17;2.10;;;0.70;;
12910;SDS011;6523;49.758;6.120;2022-09-17T16:32:44;0.73;;;0.50;;
12910;SDS011;6523;49.758;6.120;2022-09-17T16:35:14;3.47;;;1.53;;
12910;SDS011;6523;49.758;6.120;2022-09-17T16:37:41;8.23;;;4.23;;
12910;SDS011;6523;49.758;6.120;2022-09-17T16:40:08;5.73;;;3.17;;
12910;SDS011;6523;49.758;6.120;2022-09-17T16:42:36;4.63;;;2.50;;
12910;SDS011;6523;49.758;6.120;2022-09-17T16:45:02;8.03;;;1.90;;
12910;SDS011;6523;49.758;6.120;2022-09-17T16:47:32;6.47;;;1.80;;
12910;SDS011;6523;49.758;6.120;2022-09-17T16:50:00;5.50;;;2.03;;
12910;SDS011;6523;49.758;6.120;2022-09-17T16:52:28;5.63;;;1.67;;
12910;SDS011;6523;49.758;6.120;2022-09-17T16:54:53;4.53;;;1.30;;
12910;SDS011;6523;49.758;6.120;2022-09-17T16:57:20;5.17;;;1.10;;
12910;SDS011;6523;49.758;6.120;2022-09-17T16:59:45;4.27;;;0.90;;
12910;SDS011;6523;49.758;6.120;2022-09-17T17:02:11;4.43;;;1.20;;
12910;SDS011;6523;49.758;6.120;2022-09-17T17:04:36;3.30;;;1.00;;
12910;SDS011;6523;49.758;6.120;2022-09-17T17:07:02;2.00;;;1.37;;
12910;SDS011;6523;49.758;6.120;2022-09-17T17:09:28;5.13;;;1.40;;
12910;SDS011;6523;49.758;6.120;2022-09-17T17:11:53;2.83;;;1.10;;
12910;SDS011;6523;49.758;6.120;2022-09-17T17:14:20;4.47;;;1.20;;
12910;SDS011;6523;49.758;6.120;2022-09-17T17:16:45;6.63;;;1.80;;
12910;SDS011;6523;49.758;6.120;2022-09-17T17:19:11;3.90;;;1.40;;
12910;SDS011;6523;49.758;6.120;2022-09-17T17:21:36;3.13;;;1.17;;
12910;SDS011;6523;49.758;6.120;2022-09-17T17:24:02;3.40;;;1.17;;
12910;SDS011;6523;49.758;6.120;2022-09-17T17:26:28;5.37;;;1.20;;
12910;SDS011;6523;49.758;6.120;2022-09-17T17:28:54;3.20;;;1.27;;
12910;SDS011;6523;49.758;6.120;2022-09-17T17:31:19;2.20;;;1.13;;
12910;SDS011;6523;49.758;6.120;2022-09-17T17:33:45;1.73;;;1.10;;
12910;SDS011;6523;49.758;6.120;2022-09-17T17:36:11;3.00;;;1.20;;
12910;SDS011;6523;49.758;6.120;2022-09-17T17:38:36;3.33;;;1.20;;
12910;SDS011;6523;49.758;6.120;2022-09-17T17:41:06;3.57;;;1.23;;
12910;SDS011;6523;49.758;6.120;2022-09-17T17:43:36;2.37;;;1.13;;
12910;SDS011;6523;49.758;6.120;2022-09-17T17:46:08;4.07;;;1.43;;
12910;SDS011;6523;49.758;6.120;2022-09-17T17:48:35;4.10;;;1.20;;
12910;SDS011;6523;49.758;6.120;2022-09-17T17:51:02;3.30;;;1.10;;
12910;SDS011;6523;49.758;6.120;2022-09-17T17:53:29;2.90;;;1.10;;
12910;SDS011;6523;49.758;6.120;2022-09-17T17:55:56;2.97;;;1.17;;
12910;SDS011;6523;49.758;6.120;2022-09-17T17:58:22;3.37;;;1.10;;
12910;SDS011;6523;49.758;6.120;2022-09-17T18:00:49;5.17;;;1.00;;
12910;SDS011;6523;49.758;6.120;2022-09-17T18:03:14;2.27;;;1.03;;
12910;SDS011;6523;49.758;6.120;2022-09-17T18:05:40;1.70;;;0.90;;
12910;SDS011;6523;49.758;6.120;2022-09-17T18:08:05;4.07;;;1.00;;
12910;SDS011;6523;49.758;6.120;2022-09-17T18:10:31;2.10;;;0.90;;
12910;SDS011;6523;49.758;6.120;2022-09-17T18:12:56;1.10;;;0.80;;
12910;SDS011;6523;49.758;6.120;2022-09-17T18:15:22;2.33;;;1.00;;
12910;SDS011;6523;49.758;6.120;2022-09-17T18:17:48;1.83;;;1.10;;
12910;SDS011;6523;49.758;6.120;2022-09-17T18:20:15;2.03;;;0.93;;
12910;SDS011;6523;49.758;6.120;2022-09-17T18:22:42;2.53;;;0.80;;